| time (UTC) | temp F | wind direction | speed MPH | gust MPH | rain 1hr in | rain 24hr in | rain mn in | humidity % | barometer mb |
| 20260508162017 | 53 | 203 | 2.0 | 4.0 | 0.00 | 0.00 | 0.00 | 36 | 1017.3 |
| 20260508161547 | 53 | 240 | 1.0 | 4.0 | 0.00 | 0.00 | 0.00 | 43 | 1017.2 |
| 20260508161021 | 53 | 236 | 1.0 | 3.0 | 0.00 | 0.00 | 0.00 | 48 | 1017.1 |
| 20260508160515 | 53 | 282 | 1.0 | 3.0 | 0.00 | 0.00 | 0.00 | 46 | 1017.1 |
| 20260508160059 | 53 | 238 | 1.0 | 3.0 | 0.00 | 0.00 | 0.00 | 48 | 1017.1 |
| 20260508155515 | 53 | 78 | 1.0 | 3.0 | 0.00 | 0.00 | 0.00 | 65 | 1017.2 |
| 20260508155014 | 53 | 94 | 1.0 | 3.0 | 0.00 | 0.00 | 0.00 | 63 | 1017.1 |
| 20260508154554 | 53 | 142 | 1.0 | 3.0 | 0.00 | 0.00 | 0.00 | 63 | 1017.2 |
| 20260508154015 | 53 | 97 | 1.0 | 3.0 | 0.00 | 0.00 | 0.00 | 59 | 1017.1 |
| 20260508153518 | 53 | 100 | 0.0 | 2.0 | 0.00 | 0.00 | 0.00 | 61 | 1017.1 |
| 20260508153047 | 53 | 98 | 0.0 | 3.0 | 0.00 | 0.00 | 0.00 | 62 | 1017.1 |
| 20260508152516 | 53 | 95 | 1.0 | 3.0 | 0.00 | 0.00 | 0.00 | 60 | 1017.1 |
| 20260508152015 | 52 | 321 | 0.0 | 4.0 | 0.00 | 0.00 | 0.00 | 47 | 1017.0 |
| 20260508151555 | 53 | 323 | 1.0 | 4.0 | 0.00 | 0.00 | 0.00 | 53 | 1017.1 |
| 20260508151015 | 53 | 94 | 0.0 | 2.0 | 0.00 | 0.00 | 0.00 | 65 | 1017.1 |
| 20260508150518 | 53 | 209 | 0.0 | 1.0 | 0.00 | 0.00 | 0.00 | 62 | 1017.2 |
| 20260508150059 | 52 | 209 | 0.0 | 3.0 | 0.00 | 0.00 | 0.00 | 59 | 1017.2 |
| 20260508145517 | 52 | 209 | 1.0 | 3.0 | 0.00 | 0.00 | 0.00 | 54 | 1017.3 |
| 20260508145015 | 52 | 223 | 0.0 | 2.0 | 0.00 | 0.00 | 0.00 | 57 | 1017.2 |
| 20260508144552 | 51 | 223 | 1.0 | 2.0 | 0.00 | 0.00 | 0.00 | 59 | 1017.3 |
| 20260508144027 | 51 | 217 | 0.0 | 1.0 | 0.00 | 0.00 | 0.00 | 63 | 1017.3 |
| 20260508143518 | 51 | 217 | 0.0 | 1.0 | 0.00 | 0.00 | 0.00 | 65 | 1017.1 |
| 20260508143040 | 51 | 215 | 0.0 | 2.0 | 0.00 | 0.00 | 0.00 | 59 | 1017.1 |
| 20260508142515 | 51 | 253 | 1.0 | 2.0 | 0.00 | 0.00 | 0.00 | 53 | 1017.2 |
| 20260508142016 | 51 | 253 | 1.0 | 2.0 | 0.00 | 0.00 | 0.00 | 61 | 1017.1 |
| 20260508141545 | 51 | 253 | 0.0 | 1.0 | 0.00 | 0.00 | 0.00 | 58 | 1017.0 |
| 20260508141016 | 51 | 253 | 0.0 | 2.0 | 0.00 | 0.00 | 0.00 | 55 | 1016.9 |
| 20260508140516 | 51 | 253 | 0.0 | 2.0 | 0.00 | 0.00 | 0.00 | 52 | 1016.8 |
| 20260508140049 | 51 | 253 | 1.0 | 3.0 | 0.00 | 0.00 | 0.00 | 51 | 1016.8 |
| 20260508135515 | 51 | 253 | 1.0 | 3.0 | 0.00 | 0.00 | 0.00 | 52 | 1016.8 |
| 20260508135023 | 51 | 281 | 1.0 | 2.0 | 0.00 | 0.00 | 0.00 | 54 | 1016.8 |
| 20260508134550 | 51 | 292 | 1.0 | 2.0 | 0.00 | 0.00 | 0.00 | 56 | 1016.8 |
| 20260508134021 | 51 | 304 | 1.0 | 2.0 | 0.00 | 0.00 | 0.00 | 57 | 1016.9 |
| 20260508133526 | 51 | 304 | 1.0 | 2.0 | 0.00 | 0.00 | 0.00 | 57 | 1017.0 |
| 20260508133043 | 51 | 304 | 1.0 | 2.0 | 0.00 | 0.00 | 0.00 | 58 | 1016.9 |
| 20260508132527 | 51 | 294 | 1.0 | 2.0 | 0.00 | 0.00 | 0.00 | 59 | 1017.0 |
| 20260508132015 | 51 | 325 | 0.0 | 2.0 | 0.00 | 0.00 | 0.00 | 58 | 1017.1 |
| 20260508131546 | 51 | 342 | 0.0 | 0.0 | 0.00 | 0.00 | 0.00 | 58 | 1017.1 |
| 20260508131023 | 51 | 342 | 0.0 | 0.0 | 0.00 | 0.00 | 0.00 | 57 | 1017.2 |
| 20260508130518 | 51 | 342 | 0.0 | 0.0 | 0.00 | 0.00 | 0.00 | 59 | 1017.1 |
| 20260508130107 | 51 | 342 | 0.0 | 0.0 | 0.00 | 0.00 | 0.00 | 60 | 1017.1 |
| 20260508125519 | 51 | 342 | 0.0 | 0.0 | 0.00 | 0.00 | 0.00 | 62 | 1017.1 |
| 20260508125026 | 51 | 342 | 0.0 | 0.0 | 0.00 | 0.00 | 0.00 | 62 | 1017.1 |
| 20260508124554 | 51 | 342 | 0.0 | 0.0 | 0.00 | 0.00 | 0.00 | 62 | 1017.1 |
| 20260508124015 | 51 | 342 | 0.0 | 0.0 | 0.00 | 0.00 | 0.00 | 62 | 1017.1 |
| 20260508123531 | 51 | 342 | 0.0 | 1.0 | 0.00 | 0.00 | 0.00 | 62 | 1017.1 |
| 20260508123105 | 51 | 342 | 0.0 | 1.0 | 0.00 | 0.00 | 0.00 | 62 | 1017.0 |
| 20260508122514 | 51 | 342 | 0.0 | 1.0 | 0.00 | 0.00 | 0.00 | 62 | 1017.0 |
| 20260508122025 | 51 | 342 | 0.0 | 0.0 | 0.00 | 0.00 | 0.00 | 63 | 1017.1 |
| 20260508121602 | 51 | 344 | 0.0 | 0.0 | 0.00 | 0.00 | 0.00 | 63 | 1017.0 |
| 20260508121013 | 51 | 344 | 0.0 | 0.0 | 0.00 | 0.00 | 0.00 | 62 | 1017.1 |
| 20260508120513 | 51 | 344 | 0.0 | 1.0 | 0.00 | 0.00 | 0.00 | 62 | 1017.1 |
| 20260508120111 | 51 | 344 | 0.0 | 1.0 | 0.00 | 0.00 | 0.00 | 62 | 1017.1 |
| 20260508115517 | 51 | 338 | 0.0 | 1.0 | 0.00 | 0.00 | 0.00 | 62 | 1017.3 |
| 20260508115016 | 51 | 338 | 0.0 | 0.0 | 0.00 | 0.00 | 0.00 | 61 | 1017.3 |
| 20260508114549 | 51 | 338 | 0.0 | 1.0 | 0.00 | 0.00 | 0.00 | 61 | 1017.3 |
| 20260508114019 | 51 | 338 | 0.0 | 3.0 | 0.00 | 0.00 | 0.00 | 61 | 1017.3 |
| 20260508113515 | 51 | 338 | 1.0 | 3.0 | 0.00 | 0.00 | 0.00 | 61 | 1017.3 |
| 20260508113053 | 51 | 352 | 0.0 | 2.0 | 0.00 | 0.00 | 0.00 | 59 | 1017.3 |
| 20260508112516 | 52 | 355 | 0.0 | 2.0 | 0.00 | 0.00 | 0.00 | 57 | 1017.4 |
| 20260508112014 | 52 | 355 | 0.0 | 2.0 | 0.00 | 0.00 | 0.00 | 56 | 1017.3 |
| 20260508111549 | 53 | 352 | 0.0 | 2.0 | 0.00 | 0.00 | 0.00 | 56 | 1017.2 |
| 20260508111016 | 53 | 352 | 1.0 | 2.0 | 0.00 | 0.00 | 0.00 | 55 | 1017.3 |
| 20260508110525 | 53 | 352 | 0.0 | 3.0 | 0.00 | 0.00 | 0.00 | 55 | 1017.3 |
| 20260508110049 | 53 | 352 | 1.0 | 3.0 | 0.00 | 0.00 | 0.00 | 55 | 1017.4 |
| 20260508105517 | 53 | 325 | 1.0 | 3.0 | 0.00 | 0.00 | 0.00 | 56 | 1017.3 |
| 20260508105017 | 53 | 309 | 1.0 | 3.0 | 0.00 | 0.00 | 0.00 | 56 | 1017.4 |
| 20260508104616 | 53 | 298 | 0.0 | 4.0 | 0.00 | 0.00 | 0.00 | 56 | 1017.4 |
| 20260508104010 | 53 | 315 | 0.0 | 5.0 | 0.00 | 0.00 | 0.00 | 56 | 1017.4 |
| 20260508103515 | 53 | 302 | 1.0 | 5.0 | 0.00 | 0.00 | 0.00 | 56 | 1017.4 |
| 20260508103056 | 53 | 321 | 1.0 | 5.0 | 0.00 | 0.00 | 0.00 | 56 | 1017.3 |
| 20260508102519 | 53 | 320 | 3.0 | 5.0 | 0.00 | 0.00 | 0.00 | 56 | 1017.4 |
| 20260508102016 | 53 | 297 | 2.0 | 5.0 | 0.00 | 0.00 | 0.00 | 56 | 1017.4 |
| 20260508101608 | 53 | 315 | 2.0 | 5.0 | 0.00 | 0.00 | 0.00 | 56 | 1017.4 |
| 20260508101017 | 53 | 309 | 3.0 | 5.0 | 0.00 | 0.00 | 0.00 | 56 | 1017.3 |
| 20260508100517 | 53 | 319 | 3.0 | 5.0 | 0.00 | 0.00 | 0.00 | 56 | 1017.3 |
| 20260508100048 | 54 | 300 | 1.0 | 2.0 | 0.00 | 0.00 | 0.00 | 57 | 1017.3 |
| 20260508095516 | 54 | 287 | 1.0 | 2.0 | 0.00 | 0.00 | 0.00 | 56 | 1017.4 |
| 20260508095015 | 54 | 287 | 1.0 | 2.0 | 0.00 | 0.00 | 0.00 | 57 | 1017.5 |
| 20260508094819 | 54 | 287 | 0.0 | 2.0 | 0.00 | 0.00 | 0.00 | 57 | 1017.6 |
| 20260508094013 | 54 | 286 | 1.0 | 2.0 | 0.00 | 0.00 | 0.00 | 57 | 1017.5 |
| 20260508093515 | 54 | 286 | 1.0 | 2.0 | 0.00 | 0.00 | 0.00 | 57 | 1017.6 |
| 20260508093041 | 53 | 278 | 1.0 | 3.0 | 0.00 | 0.00 | 0.00 | 58 | 1017.6 |
| 20260508092515 | 53 | 277 | 1.0 | 3.0 | 0.00 | 0.00 | 0.00 | 59 | 1017.7 |
| 20260508092016 | 53 | 311 | 0.0 | 3.0 | 0.00 | 0.00 | 0.00 | 59 | 1017.7 |
| 20260508091817 | 52 | 311 | 1.0 | 3.0 | 0.00 | 0.00 | 0.00 | 60 | 1017.8 |
| 20260508091016 | 52 | 298 | 1.0 | 2.0 | 0.00 | 0.00 | 0.00 | 61 | 1017.8 |
| 20260508090630 | 52 | 304 | 1.0 | 3.0 | 0.00 | 0.00 | 0.00 | 61 | 1017.8 |
| 20260508090615 | 52 | 304 | 1.0 | 3.0 | 0.00 | 0.00 | 0.00 | 61 | 1017.9 |
| 20260508085519 | 52 | 290 | 1.0 | 3.0 | 0.00 | 0.00 | 0.00 | 61 | 1017.9 |
| 20260508085019 | 53 | 291 | 1.0 | 2.0 | 0.00 | 0.00 | 0.00 | 60 | 1017.9 |
| 20260508084609 | 53 | 293 | 1.0 | 2.0 | 0.00 | 0.00 | 0.00 | 60 | 1017.9 |
| 20260508084022 | 53 | 292 | 1.0 | 2.0 | 0.00 | 0.00 | 0.00 | 60 | 1017.9 |
| 20260508083518 | 53 | 292 | 1.0 | 2.0 | 0.00 | 0.00 | 0.00 | 60 | 1017.9 |
| 20260508083106 | 53 | 282 | 1.0 | 2.0 | 0.00 | 0.00 | 0.00 | 59 | 1017.9 |
| 20260508082515 | 53 | 276 | 1.0 | 3.0 | 0.00 | 0.00 | 0.00 | 59 | 1017.9 |
| 20260508082015 | 53 | 279 | 2.0 | 3.0 | 0.00 | 0.00 | 0.00 | 59 | 1017.9 |
| 20260508081601 | 53 | 296 | 1.0 | 2.0 | 0.00 | 0.00 | 0.00 | 60 | 1017.9 |
| 20260508081015 | 53 | 311 | 1.0 | 2.0 | 0.00 | 0.00 | 0.00 | 59 | 1017.8 |
| 20260508080515 | 53 | 311 | 0.0 | 2.0 | 0.00 | 0.00 | 0.00 | 59 | 1017.9 |
| 20260508080112 | 53 | 311 | 1.0 | 2.0 | 0.00 | 0.00 | 0.00 | 59 | 1018.0 |
| 20260508075513 | 53 | 311 | 1.0 | 2.0 | 0.00 | 0.00 | 0.00 | 59 | 1018.0 |
| 20260508075019 | 53 | 311 | 1.0 | 2.0 | 0.00 | 0.00 | 0.00 | 58 | 1018.0 |
| 20260508074554 | 53 | 311 | 1.0 | 3.0 | 0.00 | 0.00 | 0.00 | 59 | 1018.1 |
| 20260508074018 | 53 | 314 | 1.0 | 3.0 | 0.00 | 0.00 | 0.00 | 58 | 1018.0 |
| 20260508073516 | 53 | 330 | 1.0 | 2.0 | 0.00 | 0.00 | 0.00 | 58 | 1018.0 |
| 20260508073058 | 53 | 330 | 1.0 | 2.0 | 0.00 | 0.00 | 0.00 | 58 | 1018.0 |
| 20260508072515 | 53 | 330 | 1.0 | 2.0 | 0.00 | 0.00 | 0.00 | 58 | 1018.1 |
| 20260508072016 | 53 | 330 | 1.0 | 2.0 | 0.00 | 0.00 | 0.00 | 58 | 1018.1 |
| 20260508071603 | 53 | 330 | 1.0 | 3.0 | 0.00 | 0.00 | 0.00 | 59 | 1018.1 |
| 20260508071014 | 53 | 330 | 1.0 | 3.0 | 0.00 | 0.00 | 0.00 | 59 | 1018.1 |
| 20260508070516 | 53 | 328 | 1.0 | 2.0 | 0.00 | 0.00 | 0.00 | 58 | 1018.1 |
| 20260508070143 | 53 | 325 | 1.0 | 2.0 | 0.00 | 0.00 | 0.00 | 57 | 1018.2 |
| 20260508065516 | 54 | 283 | 1.0 | 2.0 | 0.00 | 0.00 | 0.00 | 56 | 1018.2 |
| 20260508065018 | 54 | 279 | 1.0 | 2.0 | 0.00 | 0.00 | 0.00 | 56 | 1018.2 |
| 20260508064816 | 54 | 279 | 0.0 | 2.0 | 0.00 | 0.00 | 0.00 | 55 | 1018.3 |
| 20260508064018 | 54 | 279 | 1.0 | 2.0 | 0.00 | 0.00 | 0.00 | 55 | 1018.2 |
| 20260508063532 | 54 | 276 | 0.0 | 1.0 | 0.00 | 0.00 | 0.00 | 55 | 1018.3 |
| 20260508063050 | 54 | 276 | 0.0 | 0.0 | 0.00 | 0.00 | 0.00 | 54 | 1018.3 |
| 20260508062519 | 54 | 276 | 0.0 | 1.0 | 0.00 | 0.00 | 0.00 | 54 | 1018.3 |
| 20260508062019 | 54 | 276 | 0.0 | 1.0 | 0.00 | 0.00 | 0.00 | 54 | 1018.3 |
| 20260508061555 | 54 | 276 | 0.0 | 0.0 | 0.00 | 0.00 | 0.00 | 54 | 1018.4 |
| 20260508061022 | 54 | 276 | 0.0 | 0.0 | 0.00 | 0.00 | 0.00 | 54 | 1018.4 |
| 20260508060521 | 54 | 276 | 0.0 | 0.0 | 0.00 | 0.00 | 0.00 | 55 | 1018.4 |
| 20260508060053 | 54 | 276 | 0.0 | 0.0 | 0.00 | 0.00 | 0.00 | 56 | 1018.4 |
| 20260508055519 | 54 | 276 | 0.0 | 1.0 | 0.00 | 0.00 | 0.00 | 56 | 1018.4 |
| 20260508055017 | 54 | 276 | 0.0 | 2.0 | 0.00 | 0.00 | 0.00 | 57 | 1018.5 |
| 20260508054550 | 54 | 276 | 1.0 | 2.0 | 0.00 | 0.00 | 0.00 | 57 | 1018.5 |
| 20260508054019 | 54 | 276 | 1.0 | 2.0 | 0.00 | 0.00 | 0.00 | 57 | 1018.4 |
| 20260508053518 | 54 | 271 | 1.0 | 2.0 | 0.00 | 0.00 | 0.00 | 56 | 1018.5 |
| 20260508053105 | 55 | 271 | 1.0 | 2.0 | 0.00 | 0.00 | 0.00 | 55 | 1018.4 |
| 20260508052520 | 55 | 271 | 1.0 | 2.0 | 0.00 | 0.00 | 0.00 | 55 | 1018.3 |
| 20260508052020 | 55 | 269 | 1.0 | 3.0 | 0.00 | 0.00 | 0.00 | 54 | 1018.4 |
| 20260508051815 | 55 | 269 | 1.0 | 3.0 | 0.00 | 0.00 | 0.00 | 53 | 1018.4 |
| 20260508051015 | 56 | 309 | 1.0 | 2.0 | 0.00 | 0.00 | 0.00 | 52 | 1018.4 |
| 20260508050516 | 56 | 309 | 0.0 | 0.0 | 0.00 | 0.00 | 0.00 | 52 | 1018.6 |
| 20260508045515 | 56 | 309 | 0.0 | 1.0 | 0.00 | 0.00 | 0.00 | 52 | 1018.4 |
| 20260508045015 | 56 | 309 | 0.0 | 2.0 | 0.00 | 0.00 | 0.00 | 52 | 1018.5 |
| 20260508044559 | 56 | 309 | 1.0 | 2.0 | 0.00 | 0.00 | 0.00 | 52 | 1018.4 |
| 20260508044015 | 56 | 309 | 0.0 | 3.0 | 0.00 | 0.00 | 0.00 | 52 | 1018.4 |
| 20260508043517 | 55 | 309 | 0.0 | 3.0 | 0.00 | 0.00 | 0.00 | 52 | 1018.6 |
| 20260508043106 | 55 | 314 | 1.0 | 2.0 | 0.00 | 0.00 | 0.00 | 52 | 1018.5 |
| 20260508042524 | 55 | 304 | 0.0 | 2.0 | 0.00 | 0.00 | 0.00 | 51 | 1018.6 |
| 20260508042014 | 55 | 340 | 1.0 | 3.0 | 0.00 | 0.00 | 0.00 | 51 | 1018.6 |
| 20260508041548 | 55 | 345 | 0.0 | 3.0 | 0.00 | 0.00 | 0.00 | 51 | 1018.6 |
| 20260508041010 | 55 | 348 | 1.0 | 3.0 | 0.00 | 0.00 | 0.00 | 51 | 1018.6 |
| 20260508040529 | 55 | 349 | 1.0 | 4.0 | 0.00 | 0.00 | 0.00 | 51 | 1018.7 |
| 20260508040112 | 56 | 320 | 1.0 | 4.0 | 0.00 | 0.00 | 0.00 | 51 | 1018.6 |
| 20260508035519 | 56 | 333 | 1.0 | 4.0 | 0.00 | 0.00 | 0.00 | 50 | 1018.6 |
| 20260508035016 | 56 | 360 | 2.0 | 6.0 | 0.00 | 0.00 | 0.00 | 50 | 1018.6 |
| 20260508034615 | 56 | 309 | 2.0 | 4.0 | 0.00 | 0.00 | 0.00 | 48 | 1018.5 |
| 20260508034029 | 57 | 295 | 0.0 | 2.0 | 0.00 | 0.00 | 0.00 | 47 | 1018.4 |
| 20260508033515 | 57 | 202 | 0.0 | 0.0 | 0.00 | 0.00 | 0.00 | 46 | 1018.4 |
| 20260508033314 | 57 | 202 | 0.0 | 0.0 | 0.00 | 0.00 | 0.00 | 46 | 1018.4 |
| 20260508032515 | 57 | 202 | 0.0 | 6.0 | 0.00 | 0.00 | 0.00 | 46 | 1018.2 |
| 20260508032016 | 57 | 202 | 0.0 | 6.0 | 0.00 | 0.00 | 0.00 | 46 | 1018.3 |
| 20260508031600 | 57 | 223 | 0.0 | 3.0 | 0.00 | 0.00 | 0.00 | 46 | 1018.3 |
| 20260508031015 | 57 | 221 | 1.0 | 3.0 | 0.00 | 0.00 | 0.00 | 46 | 1018.2 |
| 20260508030639 | 58 | 165 | 0.0 | 4.0 | 0.00 | 0.00 | 0.00 | 47 | 1018.1 |
| 20260508030057 | 58 | 211 | 1.0 | 4.0 | 0.00 | 0.00 | 0.00 | 47 | 1018.1 |
| 20260508025626 | 58 | 205 | 1.0 | 3.0 | 0.00 | 0.00 | 0.00 | 46 | 1018.1 |
| 20260508025019 | 58 | 236 | 1.0 | 3.0 | 0.00 | 0.00 | 0.00 | 46 | 1018.3 |
| 20260508024601 | 59 | 188 | 0.0 | 3.0 | 0.00 | 0.00 | 0.00 | 46 | 1018.3 |
| 20260508024017 | 59 | 143 | 1.0 | 4.0 | 0.00 | 0.00 | 0.00 | 45 | 1018.3 |
| 20260508023518 | 59 | 142 | 0.0 | 4.0 | 0.00 | 0.00 | 0.00 | 46 | 1018.3 |
| 20260508023308 | 59 | 204 | 1.0 | 4.0 | 0.00 | 0.00 | 0.00 | 45 | 1018.3 |
| 20260508022516 | 59 | 184 | 1.0 | 3.0 | 0.00 | 0.00 | 0.00 | 45 | 1018.3 |
| 20260508022018 | 59 | 168 | 1.0 | 5.0 | 0.00 | 0.00 | 0.00 | 45 | 1018.3 |
| 20260508021552 | 60 | 173 | 1.0 | 3.0 | 0.00 | 0.00 | 0.00 | 45 | 1018.3 |
| 20260508021020 | 60 | 169 | 1.0 | 4.0 | 0.00 | 0.00 | 0.00 | 46 | 1018.2 |
| 20260508020521 | 60 | 179 | 1.0 | 3.0 | 0.00 | 0.00 | 0.00 | 46 | 1018.2 |
| 20260508020058 | 60 | 180 | 1.0 | 4.0 | 0.00 | 0.00 | 0.00 | 45 | 1018.3 |
| 20260508015518 | 60 | 150 | 1.0 | 4.0 | 0.00 | 0.00 | 0.00 | 46 | 1018.3 |
| 20260508015016 | 60 | 138 | 1.0 | 3.0 | 0.00 | 0.00 | 0.00 | 45 | 1018.2 |
| 20260508014547 | 60 | 144 | 1.0 | 4.0 | 0.00 | 0.00 | 0.00 | 45 | 1018.2 |
| 20260508014017 | 60 | 153 | 1.0 | 4.0 | 0.00 | 0.00 | 0.00 | 44 | 1018.2 |
| 20260508013519 | 60 | 163 | 2.0 | 5.0 | 0.00 | 0.00 | 0.00 | 44 | 1018.3 |
| 20260508013045 | 60 | 151 | 1.0 | 4.0 | 0.00 | 0.00 | 0.00 | 44 | 1018.3 |
| 20260508012516 | 60 | 138 | 1.0 | 7.0 | 0.00 | 0.00 | 0.00 | 45 | 1018.3 |
| 20260508012016 | 60 | 100 | 1.0 | 5.0 | 0.00 | 0.00 | 0.00 | 44 | 1018.4 |
| 20260508011551 | 60 | 138 | 2.0 | 5.0 | 0.00 | 0.00 | 0.00 | 44 | 1018.4 |
| 20260508011015 | 61 | 144 | 1.0 | 5.0 | 0.00 | 0.00 | 0.00 | 44 | 1018.5 |
| 20260508010517 | 61 | 148 | 2.0 | 5.0 | 0.00 | 0.00 | 0.00 | 44 | 1018.5 |
| 20260508010055 | 61 | 146 | 1.0 | 6.0 | 0.00 | 0.00 | 0.00 | 44 | 1018.6 |
| 20260508005519 | 61 | 169 | 2.0 | 6.0 | 0.00 | 0.00 | 0.00 | 44 | 1018.6 |
| 20260508005016 | 61 | 146 | 1.0 | 7.0 | 0.00 | 0.00 | 0.00 | 44 | 1018.6 |
| 20260508004600 | 61 | 144 | 4.0 | 9.0 | 0.00 | 0.00 | 0.00 | 42 | 1018.6 |
| 20260508004017 | 61 | 156 | 2.0 | 9.0 | 0.00 | 0.00 | 0.00 | 43 | 1018.8 |
| 20260508003515 | 61 | 156 | 1.0 | 6.0 | 0.00 | 0.00 | 0.00 | 43 | 1018.8 |
| 20260508003053 | 61 | 109 | 2.0 | 6.0 | 0.00 | 0.00 | 0.00 | 42 | 1018.6 |
| 20260508002514 | 62 | 129 | 1.0 | 6.0 | 0.00 | 0.00 | 0.00 | 43 | 1018.7 |
| 20260508002014 | 62 | 132 | 2.0 | 6.0 | 0.00 | 0.00 | 0.00 | 42 | 1018.8 |
| 20260508001554 | 62 | 137 | 2.0 | 5.0 | 0.00 | 0.00 | 0.00 | 41 | 1018.9 |
| 20260508001017 | 62 | 127 | 2.0 | 7.0 | 0.00 | 0.00 | 0.00 | 41 | 1018.9 |
| 20260508000514 | 63 | 122 | 3.0 | 6.0 | 0.00 | 0.00 | 0.00 | 41 | 1018.6 |
| 20260507235515 | 63 | 131 | 2.0 | 7.0 | 0.00 | 0.00 | 0.00 | 41 | 1018.8 |
| 20260507235023 | 63 | 140 | 2.0 | 7.0 | 0.00 | 0.00 | 0.00 | 41 | 1018.9 |
| 20260507234610 | 64 | 128 | 2.0 | 8.0 | 0.00 | 0.00 | 0.00 | 40 | 1018.9 |
| 20260507234013 | 64 | 157 | 2.0 | 8.0 | 0.00 | 0.00 | 0.00 | 41 | 1018.9 |
| 20260507233516 | 64 | 153 | 2.0 | 8.0 | 0.00 | 0.00 | 0.00 | 39 | 1019.1 |
| 20260507233323 | 64 | 132 | 2.0 | 8.0 | 0.00 | 0.00 | 0.00 | 40 | 1019.2 |
| 20260507232516 | 64 | 93 | 2.0 | 8.0 | 0.00 | 0.00 | 0.00 | 40 | 1019.2 |
| 20260507232015 | 64 | 113 | 3.0 | 6.0 | 0.00 | 0.00 | 0.00 | 39 | 1019.3 |
| 20260507231547 | 64 | 83 | 2.0 | 5.0 | 0.00 | 0.00 | 0.00 | 42 | 1019.2 |
| 20260507231015 | 64 | 139 | 2.0 | 6.0 | 0.00 | 0.00 | 0.00 | 42 | 1019.2 |
| 20260507230702 | 64 | 139 | 3.0 | 7.0 | 0.00 | 0.00 | 0.00 | 41 | 1019.3 |
| 20260507230055 | 63 | 98 | 3.0 | 7.0 | 0.00 | 0.00 | 0.00 | 42 | 1019.3 |
| 20260507225521 | 63 | 103 | 3.0 | 7.0 | 0.00 | 0.00 | 0.00 | 40 | 1019.3 |
| 20260507225017 | 63 | 105 | 3.0 | 7.0 | 0.00 | 0.00 | 0.00 | 42 | 1019.4 |
| 20260507224548 | 63 | 134 | 3.0 | 7.0 | 0.00 | 0.00 | 0.00 | 41 | 1019.4 |
| 20260507224018 | 63 | 109 | 3.0 | 8.0 | 0.00 | 0.00 | 0.00 | 41 | 1019.4 |
| 20260507223515 | 64 | 138 | 1.0 | 8.0 | 0.00 | 0.00 | 0.00 | 42 | 1019.4 |
| 20260507223046 | 64 | 88 | 2.0 | 7.0 | 0.00 | 0.00 | 0.00 | 42 | 1019.4 |
| 20260507222516 | 64 | 107 | 2.0 | 7.0 | 0.00 | 0.00 | 0.00 | 42 | 1019.5 |
| 20260507222017 | 63 | 92 | 2.0 | 8.0 | 0.00 | 0.00 | 0.00 | 41 | 1019.7 |
| 20260507221545 | 63 | 64 | 2.0 | 8.0 | 0.00 | 0.00 | 0.00 | 41 | 1019.8 |
| 20260507221026 | 63 | 102 | 2.0 | 7.0 | 0.00 | 0.00 | 0.00 | 41 | 1019.9 |
| 20260507220516 | 63 | 84 | 2.0 | 8.0 | 0.00 | 0.00 | 0.00 | 39 | 1019.9 |
| 20260507220113 | 63 | 49 | 4.0 | 8.0 | 0.00 | 0.00 | 0.00 | 41 | 1019.9 |
| 20260507215518 | 63 | 81 | 3.0 | 8.0 | 0.00 | 0.00 | 0.00 | 41 | 1019.9 |
| 20260507215020 | 63 | 114 | 2.0 | 8.0 | 0.00 | 0.00 | 0.00 | 42 | 1020.0 |
| 20260507214606 | 63 | 109 | 2.0 | 9.0 | 0.00 | 0.00 | 0.00 | 43 | 1019.9 |
| 20260507214015 | 62 | 100 | 4.0 | 8.0 | 0.00 | 0.00 | 0.00 | 41 | 1020.0 |
| 20260507213519 | 62 | 165 | 3.0 | 9.0 | 0.00 | 0.00 | 0.00 | 41 | 1020.0 |
| 20260507213107 | 62 | 74 | 3.0 | 9.0 | 0.00 | 0.00 | 0.00 | 41 | 1020.1 |
| 20260507212515 | 63 | 103 | 3.0 | 7.0 | 0.00 | 0.00 | 0.00 | 40 | 1020.2 |
| 20260507212017 | 63 | 100 | 4.0 | 7.0 | 0.00 | 0.00 | 0.00 | 41 | 1020.3 |
| 20260507211612 | 63 | 50 | 2.0 | 7.0 | 0.00 | 0.00 | 0.00 | 38 | 1020.3 |
| 20260507211014 | 63 | 140 | 3.0 | 8.0 | 0.00 | 0.00 | 0.00 | 40 | 1020.4 |
| 20260507210515 | 64 | 78 | 2.0 | 8.0 | 0.00 | 0.00 | 0.00 | 38 | 1020.3 |
| 20260507210314 | 64 | 155 | 3.0 | 9.0 | 0.00 | 0.00 | 0.00 | 42 | 1020.3 |
| 20260507205517 | 64 | 140 | 3.0 | 9.0 | 0.00 | 0.00 | 0.00 | 40 | 1020.2 |
| 20260507205014 | 63 | 120 | 4.0 | 9.0 | 0.00 | 0.00 | 0.00 | 40 | 1020.1 |
| 20260507204603 | 63 | 108 | 3.0 | 9.0 | 0.00 | 0.00 | 0.00 | 43 | 1020.1 |
| 20260507204016 | 63 | 119 | 3.0 | 8.0 | 0.00 | 0.00 | 0.00 | 43 | 1020.1 |
| 20260507203514 | 62 | 82 | 4.0 | 10.0 | 0.00 | 0.00 | 0.00 | 42 | 1020.1 |
| 20260507203110 | 63 | 80 | 4.0 | 10.0 | 0.00 | 0.00 | 0.00 | 43 | 1020.1 |
| 20260507202528 | 63 | 95 | 3.0 | 10.0 | 0.00 | 0.00 | 0.00 | 40 | 1020.2 |
| 20260507202017 | 63 | 59 | 4.0 | 9.0 | 0.00 | 0.00 | 0.00 | 41 | 1020.1 |
| 20260507201604 | 63 | 92 | 4.0 | 9.0 | 0.00 | 0.00 | 0.00 | 39 | 1020.2 |
| 20260507201028 | 63 | 91 | 4.0 | 8.0 | 0.00 | 0.00 | 0.00 | 38 | 1020.3 |
| 20260507200519 | 63 | 78 | 3.0 | 8.0 | 0.00 | 0.00 | 0.00 | 40 | 1020.2 |
| 20260507195528 | 63 | 84 | 3.0 | 9.0 | 0.00 | 0.00 | 0.00 | 38 | 1020.2 |
| 20260507195018 | 63 | 82 | 3.0 | 6.0 | 0.00 | 0.00 | 0.00 | 35 | 1020.2 |
| 20260507194610 | 64 | 76 | 3.0 | 8.0 | 0.00 | 0.00 | 0.00 | 34 | 1020.1 |
| 20260507194027 | 64 | 90 | 4.0 | 8.0 | 0.00 | 0.00 | 0.00 | 34 | 1020.3 |
| 20260507193516 | 63 | 110 | 3.0 | 8.0 | 0.00 | 0.00 | 0.00 | 41 | 1020.2 |
| 20260507193113 | 64 | 77 | 4.0 | 10.0 | 0.00 | 0.00 | 0.00 | 36 | 1020.4 |
| 20260507192521 | 63 | 58 | 4.0 | 10.0 | 0.00 | 0.00 | 0.00 | 35 | 1020.6 |
| 20260507192022 | 63 | 80 | 3.0 | 11.0 | 0.00 | 0.00 | 0.00 | 39 | 1020.5 |
| 20260507191616 | 63 | 86 | 4.0 | 10.0 | 0.00 | 0.00 | 0.00 | 36 | 1020.3 |
| 20260507191023 | 63 | 86 | 3.0 | 8.0 | 0.00 | 0.00 | 0.00 | 39 | 1020.4 |
| 20260507190511 | 63 | 98 | 4.0 | 9.0 | 0.00 | 0.00 | 0.00 | 38 | 1020.5 |
| 20260507190504 | 62 | 41 | 3.0 | 9.0 | 0.00 | 0.00 | 0.00 | 38 | 1020.4 |
| 20260507185512 | 62 | 114 | 4.0 | 9.0 | 0.00 | 0.00 | 0.00 | 37 | 1020.4 |
| 20260507185021 | 62 | 99 | 3.0 | 9.0 | 0.00 | 0.00 | 0.00 | 37 | 1020.4 |
| 20260507184617 | 63 | 50 | 3.0 | 7.0 | 0.00 | 0.00 | 0.00 | 40 | 1020.3 |
| 20260507184021 | 62 | 68 | 3.0 | 8.0 | 0.00 | 0.00 | 0.00 | 39 | 1020.4 |
| 20260507183522 | 61 | 84 | 3.0 | 9.0 | 0.00 | 0.00 | 0.00 | 40 | 1020.4 |
| 20260507183117 | 62 | 61 | 3.0 | 7.0 | 0.00 | 0.00 | 0.00 | 43 | 1020.4 |
| 20260507182520 | 61 | 86 | 2.0 | 6.0 | 0.00 | 0.00 | 0.00 | 36 | 1020.4 |
| 20260507182022 | 61 | 58 | 3.0 | 8.0 | 0.00 | 0.00 | 0.00 | 39 | 1020.3 |
| 20260507181612 | 61 | 103 | 2.0 | 8.0 | 0.00 | 0.00 | 0.00 | 37 | 1020.2 |
| 20260507181022 | 61 | 110 | 3.0 | 8.0 | 0.00 | 0.00 | 0.00 | 46 | 1020.1 |
| 20260507180516 | 61 | 293 | 2.0 | 6.0 | 0.00 | 0.00 | 0.00 | 35 | 1020.2 |
| 20260507180034 | 61 | 45 | 3.0 | 6.0 | 0.00 | 0.00 | 0.00 | 36 | 1020.2 |
| 20260507175515 | 61 | 51 | 2.0 | 6.0 | 0.00 | 0.00 | 0.00 | 41 | 1020.1 |
| 20260507175015 | 62 | 107 | 3.0 | 6.0 | 0.00 | 0.00 | 0.00 | 41 | 1020.2 |
| 20260507174544 | 61 | 45 | 1.0 | 5.0 | 0.00 | 0.00 | 0.00 | 44 | 1020.2 |
| 20260507174017 | 61 | 91 | 1.0 | 6.0 | 0.00 | 0.00 | 0.00 | 43 | 1020.1 |
| 20260507173520 | 61 | 90 | 3.0 | 6.0 | 0.00 | 0.00 | 0.00 | 39 | 1020.0 |
| 20260507173050 | 60 | 61 | 2.0 | 5.0 | 0.00 | 0.00 | 0.00 | 48 | 1019.9 |
| 20260507172516 | 60 | 133 | 2.0 | 6.0 | 0.00 | 0.00 | 0.00 | 41 | 1019.8 |
| 20260507172016 | 59 | 60 | 2.0 | 8.0 | 0.00 | 0.00 | 0.00 | 44 | 1019.8 |
| 20260507171550 | 59 | 71 | 4.0 | 8.0 | 0.00 | 0.00 | 0.00 | 46 | 1019.8 |
| 20260507171016 | 59 | 37 | 1.0 | 9.0 | 0.00 | 0.00 | 0.00 | 43 | 1019.8 |
| 20260507170523 | 58 | 53 | 3.0 | 9.0 | 0.00 | 0.00 | 0.00 | 41 | 1019.8 |
| 20260507170315 | 58 | 76 | 3.0 | 9.0 | 0.00 | 0.00 | 0.00 | 46 | 1019.7 |
| 20260507165519 | 59 | 105 | 4.0 | 9.0 | 0.00 | 0.00 | 0.00 | 38 | 1019.7 |
| 20260507165019 | 59 | 69 | 3.0 | 7.0 | 0.00 | 0.00 | 0.00 | 41 | 1019.6 |
| 20260507164640 | 59 | 30 | 1.0 | 5.0 | 0.00 | 0.00 | 0.00 | 40 | 1019.6 |
| 20260507164016 | 59 | 84 | 2.0 | 5.0 | 0.00 | 0.00 | 0.00 | 44 | 1019.7 |
| 20260507163526 | 58 | 128 | 1.0 | 4.0 | 0.00 | 0.00 | 0.00 | 47 | 1019.6 |
| 20260507163049 | 58 | 136 | 2.0 | 5.0 | 0.00 | 0.00 | 0.00 | 38 | 1019.6 |
| 20260507162515 | 58 | 275 | 1.0 | 5.0 | 0.00 | 0.00 | 0.00 | 41 | 1019.7 |